Time;durP1;ratioP1;P1;durP2;ratioP2;P2;SDS_P1;SDS_P2;PMS_P1;PMS_P2;Temp;Humidity;BMP_temperature;BMP_pressure;BME280_temperature;BME280_humidity;BME280_pressure;Samples;Min_cycle;Max_cycle;Signal;HPM_P1;HPM_P2
2023/05/18 00:01:02;;;;;;;24.42;7.00;;;15.20;73.40;;;;;;4984170;28;20035;-59
2023/05/18 00:03:28;;;;;;;27.17;6.55;;;15.20;73.50;;;;;;4984462;28;20030;-59
2023/05/18 00:05:56;;;;;;;21.80;6.78;;;15.20;73.60;;;;;;4985859;28;20050;-57
2023/05/18 00:08:22;;;;;;;24.83;6.45;;;15.10;73.60;;;;;;4985400;28;20206;-59
2023/05/18 00:10:47;;;;;;;24.95;7.22;;;15.10;73.60;;;;;;4983184;28;20134;-59
2023/05/18 00:13:13;;;;;;;24.55;6.90;;;15.10;73.70;;;;;;4985804;28;20027;-59
2023/05/18 00:15:38;;;;;;;21.08;6.50;;;15.10;73.80;;;;;;5017204;28;20042;-58
2023/05/18 00:18:05;;;;;;;28.90;6.45;;;15.00;73.80;;;;;;4985885;28;20109;-59
2023/05/18 00:20:31;;;;;;;19.15;6.28;;;15.00;73.90;;;;;;5016455;28;20038;-59
2023/05/18 00:22:56;;;;;;;21.02;6.13;;;15.00;73.90;;;;;;4984505;28;20090;-59
2023/05/18 00:25:22;;;;;;;21.65;5.90;;;15.00;73.90;;;;;;4984895;28;20337;-58
2023/05/18 00:27:48;;;;;;;18.83;5.57;;;14.90;73.90;;;;;;4983865;28;20567;-58
2023/05/18 00:30:14;;;;;;;14.88;5.53;;;15.00;74.00;;;;;;4983883;28;20034;-58
2023/05/18 00:32:40;;;;;;;18.02;5.30;;;14.90;73.80;;;;;;4985606;28;20085;-58
2023/05/18 00:35:06;;;;;;;16.58;5.10;;;14.90;74.00;;;;;;4985913;28;20030;-59
2023/05/18 00:37:31;;;;;;;19.48;5.60;;;14.90;74.10;;;;;;4983392;28;20027;-58
2023/05/18 00:39:57;;;;;;;16.98;5.18;;;14.90;74.10;;;;;;4985729;28;20038;-59
2023/05/18 00:42:22;;;;;;;19.15;5.22;;;14.80;74.20;;;;;;4984488;28;20029;-59
2023/05/18 00:44:48;;;;;;;11.35;4.82;;;14.80;74.30;;;;;;4983044;28;20038;-59
2023/05/18 00:47:14;;;;;;;15.60;5.57;;;14.70;74.30;;;;;;5016003;28;20046;-57
2023/05/18 00:49:40;;;;;;;14.65;5.00;;;14.70;74.50;;;;;;4984406;28;20094;-59
2023/05/18 00:52:06;;;;;;;14.50;5.20;;;14.70;74.50;;;;;;4983715;28;20035;-58
2023/05/18 00:54:33;;;;;;;12.23;4.75;;;14.60;74.60;;;;;;4984246;28;20031;-59
2023/05/18 00:57:00;;;;;;;14.70;5.13;;;14.60;74.60;;;;;;4983939;28;20037;-59
2023/05/18 00:59:27;;;;;;;14.18;5.05;;;14.60;74.60;;;;;;4985359;28;20036;-58
2023/05/18 01:01:52;;;;;;;13.68;4.90;;;14.60;75.30;;;;;;4982446;28;20061;-59
2023/05/18 01:04:20;;;;;;;23.77;5.30;;;14.60;74.70;;;;;;4984126;28;20026;-59
2023/05/18 01:06:46;;;;;;;11.95;5.05;;;14.60;74.80;;;;;;4983964;28;20030;-59
2023/05/18 01:09:12;;;;;;;12.73;4.90;;;14.50;74.90;;;;;;4984432;28;20026;-59
2023/05/18 01:12:05;;;;;;;10.93;4.55;;;14.50;75.00;;;;;;4983529;28;20043;-59
2023/05/18 01:14:53;;;;;;;11.73;4.68;;;14.50;75.10;;;;;;4983941;28;20027;-58
2023/05/18 01:17:27;;;;;;;9.05;4.50;;;14.50;75.10;;;;;;4984203;28;20031;-59
2023/05/18 01:19:53;;;;;;;14.13;5.15;;;14.40;75.20;;;;;;4986698;28;20034;-58
2023/05/18 01:22:34;;;;;;;16.83;5.00;;;14.50;75.30;;;;;;4988721;28;20034;-59
2023/05/18 01:25:03;;;;;;;11.63;5.32;;;14.40;75.30;;;;;;4988995;28;20038;-58
2023/05/18 01:27:36;;;;;;;10.40;4.85;;;14.40;75.30;;;;;;4987355;28;20037;-59
2023/05/18 01:30:02;;;;;;;14.93;5.53;;;14.40;75.30;;;;;;4987395;28;20046;-59
2023/05/18 01:32:28;;;;;;;12.52;5.47;;;14.40;75.30;;;;;;4987205;28;20066;-58
2023/05/18 01:34:53;;;;;;;9.57;5.30;;;14.40;75.40;;;;;;4988838;28;20451;-59
2023/05/18 01:37:19;;;;;;;8.30;4.85;;;14.30;75.50;;;;;;4988792;28;20038;-59
2023/05/18 01:39:44;;;;;;;10.35;5.47;;;14.30;75.60;;;;;;4971103;28;20062;-58
2023/05/18 01:42:18;;;;;;;11.23;5.35;;;14.30;75.60;;;;;;4987129;28;20030;-58
2023/05/18 01:44:49;;;;;;;8.75;5.07;;;14.30;75.70;;;;;;4987057;28;20039;-58
2023/05/18 01:47:15;;;;;;;11.68;5.47;;;14.30;75.70;;;;;;4986931;28;20027;-58
2023/05/18 01:50:03;;;;;;;9.70;5.38;;;14.20;75.70;;;;;;4970008;28;20121;-59
2023/05/18 01:52:35;;;;;;;9.48;4.47;;;14.20;75.80;;;;;;4986666;28;20038;-59
2023/05/18 01:55:02;;;;;;;12.63;6.28;;;14.20;75.90;;;;;;4987255;28;20031;-59
2023/05/18 01:57:28;;;;;;;9.57;5.82;;;14.20;76.00;;;;;;4985962;28;20030;-59
2023/05/18 01:59:54;;;;;;;13.45;5.95;;;14.20;75.90;;;;;;4986535;28;20093;-58
2023/05/18 02:02:20;;;;;;;15.18;5.88;;;14.20;76.00;;;;;;4986052;28;20038;-59
2023/05/18 02:04:45;;;;;;;10.63;5.82;;;14.10;76.00;;;;;;4986494;28;20121;-58
2023/05/18 02:07:11;;;;;;;6.63;5.10;;;14.10;76.10;;;;;;4985600;28;20093;-59
2023/05/18 02:09:36;;;;;;;14.00;5.22;;;14.10;76.20;;;;;;4986908;28;20075;-58
2023/05/18 02:12:02;;;;;;;9.27;5.13;;;14.10;76.20;;;;;;4987356;28;20086;-59
2023/05/18 02:14:28;;;;;;;9.98;5.22;;;14.10;76.30;;;;;;4988004;28;20089;-59
2023/05/18 02:16:53;;;;;;;10.98;5.53;;;14.00;76.30;;;;;;4984819;28;20042;-59
2023/05/18 02:19:20;;;;;;;13.43;5.45;;;14.00;76.40;;;;;;4986756;28;20031;-57
2023/05/18 02:21:45;;;;;;;12.93;5.47;;;14.00;76.50;;;;;;4985888;28;20066;-58
2023/05/18 02:24:11;;;;;;;9.18;5.65;;;14.00;76.60;;;;;;4986497;28;20035;-59
2023/05/18 02:26:37;;;;;;;8.35;4.68;;;14.00;76.60;;;;;;4985030;28;20039;-59
2023/05/18 02:29:05;;;;;;;9.45;5.47;;;13.90;76.60;;;;;;4985601;28;20034;-59
2023/05/18 02:31:30;;;;;;;8.43;4.97;;;13.90;76.70;;;;;;4967302;28;20050;-58
2023/05/18 02:33:56;;;;;;;12.18;5.57;;;14.00;76.80;;;;;;4985314;28;20039;-59
2023/05/18 02:36:22;;;;;;;10.13;5.22;;;13.90;76.70;;;;;;4987060;28;20236;-58
2023/05/18 02:38:47;;;;;;;9.02;4.70;;;13.90;76.60;;;;;;4986232;28;20050;-58
2023/05/18 02:41:13;;;;;;;11.23;5.47;;;13.90;76.70;;;;;;4985738;28;20023;-59
2023/05/18 02:43:39;;;;;;;8.48;5.45;;;13.90;76.80;;;;;;4969886;28;20062;-59
2023/05/18 02:46:05;;;;;;;9.63;5.72;;;13.90;76.80;;;;;;4985511;28;20031;-59
2023/05/18 02:48:30;;;;;;;8.70;5.28;;;13.90;76.90;;;;;;4986648;28;20019;-58
2023/05/18 02:50:57;;;;;;;10.43;5.53;;;13.90;77.00;;;;;;4965444;28;20031;-58
2023/05/18 02:53:23;;;;;;;7.65;5.10;;;13.90;77.00;;;;;;4973710;28;20026;-59
2023/05/18 02:55:48;;;;;;;8.73;5.47;;;13.90;77.10;;;;;;4985266;28;20039;-59
2023/05/18 02:58:14;;;;;;;9.48;5.60;;;13.80;77.20;;;;;;4985388;28;20420;-58
2023/05/18 03:00:40;;;;;;;8.48;5.50;;;13.80;77.20;;;;;;4983815;28;20031;-58
2023/05/18 03:03:09;;;;;;;18.35;5.63;;;13.80;77.30;;;;;;4969526;28;20037;-58
2023/05/18 03:05:36;;;;;;;8.10;5.30;;;13.80;77.30;;;;;;4984969;28;20528;-58
2023/05/18 03:08:01;;;;;;;9.60;5.30;;;13.80;77.40;;;;;;4985977;28;20035;-58
2023/05/18 03:10:27;;;;;;;13.45;5.57;;;13.70;77.50;;;;;;4983964;28;20042;-59
2023/05/18 03:12:52;;;;;;;10.48;6.05;;;13.70;77.60;;;;;;4999913;28;20117;-59
2023/05/18 03:15:18;;;;;;;9.25;6.53;;;13.70;77.60;;;;;;4986209;28;20909;-58
2023/05/18 03:17:43;;;;;;;9.90;5.90;;;13.70;77.60;;;;;;4985194;28;20407;-58
2023/05/18 03:20:10;;;;;;;9.70;6.18;;;13.70;77.60;;;;;;4984706;28;20027;-58
2023/05/18 03:22:36;;;;;;;8.77;6.00;;;13.70;77.60;;;;;;4984912;28;20084;-58
2023/05/18 03:25:03;;;;;;;10.82;6.43;;;13.70;77.70;;;;;;4984769;28;20034;-58
2023/05/18 03:27:28;;;;;;;16.40;6.93;;;13.70;77.70;;;;;;5000424;28;20065;-58
2023/05/18 03:29:56;;;;;;;13.23;7.22;;;13.60;77.60;;;;;;4985630;28;20030;-57
2023/05/18 03:32:21;;;;;;;35.42;11.27;;;13.60;77.70;;;;;;4986151;28;20130;-59
2023/05/18 03:34:47;;;;;;;78.10;13.93;;;13.60;77.80;;;;;;4984350;28;20122;-59
2023/05/18 03:37:13;;;;;;;84.30;14.50;;;13.60;77.80;;;;;;4986285;28;20031;-58
2023/05/18 03:39:39;;;;;;;54.70;10.80;;;13.60;77.90;;;;;;4985029;28;20027;-59
2023/05/18 03:42:05;;;;;;;36.42;9.68;;;13.60;78.00;;;;;;4984040;28;20088;-58
2023/05/18 03:44:30;;;;;;;36.63;9.75;;;13.60;78.00;;;;;;4986132;28;20055;-59
2023/05/18 03:46:56;;;;;;;29.95;8.60;;;13.60;78.00;;;;;;4984162;28;20034;-59
2023/05/18 03:49:21;;;;;;;24.92;8.80;;;13.60;78.00;;;;;;4985682;28;20066;-59
2023/05/18 03:51:47;;;;;;;23.08;8.55;;;13.60;78.00;;;;;;4984141;28;20030;-58
2023/05/18 03:54:12;;;;;;;26.52;8.30;;;13.50;78.00;;;;;;4986052;28;20031;-59
2023/05/18 03:56:38;;;;;;;28.50;7.63;;;13.50;77.90;;;;;;4984469;28;20035;-59
2023/05/18 03:59:03;;;;;;;26.48;8.15;;;13.50;78.10;;;;;;5015744;28;20107;-58
2023/05/18 04:01:32;;;;;;;24.40;7.57;;;13.50;78.10;;;;;;4984277;28;20062;-58
2023/05/18 04:03:58;;;;;;;22.55;7.80;;;13.50;78.10;;;;;;4949283;29;20094;-59
2023/05/18 04:06:25;;;;;;;23.75;7.38;;;13.50;78.20;;;;;;4964984;28;20035;-58
2023/05/18 04:08:51;;;;;;;19.05;6.70;;;13.50;78.30;;;;;;4973252;28;20088;-58
2023/05/18 04:11:17;;;;;;;16.48;6.40;;;13.40;78.20;;;;;;4983947;28;20034;-58
2023/05/18 04:13:42;;;;;;;15.88;6.60;;;13.40;78.40;;;;;;4984113;28;20031;-59
2023/05/18 04:16:12;;;;;;;23.85;7.55;;;13.40;78.40;;;;;;4984015;28;20035;-58
2023/05/18 04:18:40;;;;;;;22.45;7.10;;;13.40;78.40;;;;;;4983826;28;20077;-58
2023/05/18 04:21:05;;;;;;;21.08;8.35;;;13.40;78.30;;;;;;4984144;28;20035;-59
2023/05/18 04:23:37;;;;;;;20.70;8.05;;;13.40;78.30;;;;;;4984092;28;20554;-59
2023/05/18 04:26:04;;;;;;;16.88;7.72;;;13.40;78.40;;;;;;4985145;28;20039;-59
2023/05/18 04:28:30;;;;;;;19.67;7.88;;;13.40;78.50;;;;;;4984216;28;20075;-59
2023/05/18 04:30:55;;;;;;;17.17;7.68;;;13.40;78.50;;;;;;4966023;28;20046;-58
2023/05/18 04:33:21;;;;;;;17.73;7.47;;;13.30;78.50;;;;;;4984455;28;20089;-58
2023/05/18 04:35:47;;;;;;;18.65;7.20;;;13.30;78.50;;;;;;4985268;28;20031;-58
2023/05/18 04:38:13;;;;;;;20.83;7.63;;;13.30;78.60;;;;;;4985661;28;20052;-59
2023/05/18 04:40:41;;;;;;;17.45;8.00;;;13.30;78.70;;;;;;4985173;28;20035;-58
2023/05/18 04:43:07;;;;;;;18.38;7.65;;;13.30;78.90;;;;;;4985255;28;20026;-58
2023/05/18 04:45:32;;;;;;;23.67;8.70;;;13.40;79.20;;;;;;4984016;28;20082;-59
2023/05/18 04:47:58;;;;;;;14.65;8.32;;;13.30;79.30;;;;;;4967915;28;20137;-59
2023/05/18 04:50:23;;;;;;;21.45;8.32;;;13.30;79.60;;;;;;4984118;28;20030;-59
2023/05/18 04:52:49;;;;;;;21.83;8.25;;;13.30;79.50;;;;;;4983875;28;20037;-58
2023/05/18 04:55:26;;;;;;;15.20;7.35;;;13.30;79.50;;;;;;4986818;28;20042;-59
2023/05/18 04:57:55;;;;;;;17.80;8.00;;;13.30;79.40;;;;;;4988134;28;20026;-58
2023/05/18 05:00:21;;;;;;;12.70;7.47;;;13.30;79.40;;;;;;4986538;28;20045;-58
2023/05/18 05:02:46;;;;;;;17.50;7.57;;;13.30;79.40;;;;;;4987156;28;20039;-58
2023/05/18 05:05:12;;;;;;;20.42;6.85;;;13.30;79.40;;;;;;4987894;28;20062;-58
2023/05/18 05:07:37;;;;;;;12.88;7.45;;;13.30;79.40;;;;;;4986563;28;20027;-58
2023/05/18 05:10:03;;;;;;;16.08;7.40;;;13.30;79.30;;;;;;4988914;28;20033;-58
2023/05/18 05:12:29;;;;;;;17.45;7.50;;;13.30;79.20;;;;;;4987937;28;20046;-58
2023/05/18 05:14:54;;;;;;;12.85;6.90;;;13.30;79.20;;;;;;4987497;28;20166;-58
2023/05/18 05:17:21;;;;;;;12.05;6.80;;;13.30;79.20;;;;;;4985212;28;20041;-59
2023/05/18 05:19:47;;;;;;;17.48;6.80;;;13.30;79.30;;;;;;4979446;28;20069;-58
2023/05/18 05:22:13;;;;;;;15.38;7.05;;;13.30;79.30;;;;;;4986785;28;20042;-58
2023/05/18 05:24:39;;;;;;;13.73;7.18;;;13.30;79.20;;;;;;5019148;28;20035;-58
2023/05/18 05:27:04;;;;;;;13.77;6.70;;;13.30;79.20;;;;;;4988167;28;20039;-59
2023/05/18 05:29:30;;;;;;;15.57;6.28;;;13.30;79.10;;;;;;4985375;28;20041;-59
2023/05/18 05:31:55;;;;;;;15.55;7.00;;;13.30;79.00;;;;;;4973645;28;20045;-59
2023/05/18 05:34:21;;;;;;;16.40;6.72;;;13.30;79.00;;;;;;4988518;28;20023;-58
2023/05/18 05:36:46;;;;;;;11.60;6.40;;;13.30;79.00;;;;;;4985667;28;20513;-58
2023/05/18 05:39:12;;;;;;;15.85;6.18;;;13.30;78.90;;;;;;5018248;28;20034;-59
2023/05/18 05:41:38;;;;;;;12.38;5.95;;;13.30;78.90;;;;;;4988021;28;20031;-58
2023/05/18 05:44:03;;;;;;;13.10;6.00;;;13.30;78.90;;;;;;4972148;28;20055;-59
2023/05/18 05:46:29;;;;;;;13.77;6.15;;;13.30;78.90;;;;;;4986441;28;20372;-58
2023/05/18 05:48:55;;;;;;;13.75;6.13;;;13.30;78.90;;;;;;4986492;28;20031;-59
2023/05/18 05:51:20;;;;;;;11.88;6.22;;;13.30;78.80;;;;;;4970177;28;20050;-58
2023/05/18 05:53:48;;;;;;;16.05;5.80;;;13.30;78.90;;;;;;4985810;28;20111;-59
2023/05/18 05:56:13;;;;;;;13.60;6.50;;;13.30;78.80;;;;;;4986482;28;20019;-59
2023/05/18 05:58:40;;;;;;;12.85;6.07;;;13.30;78.80;;;;;;4985816;28;20033;-59
2023/05/18 06:01:07;;;;;;;10.05;5.95;;;13.30;78.70;;;;;;4987389;28;20031;-58
2023/05/18 06:03:32;;;;;;;9.13;5.07;;;13.30;78.70;;;;;;4986044;28;20043;-58
2023/05/18 06:05:58;;;;;;;10.35;5.60;;;13.30;78.70;;;;;;4985987;28;20109;-58
2023/05/18 06:08:24;;;;;;;11.07;5.20;;;13.40;78.70;;;;;;4986898;28;20121;-58
2023/05/18 06:10:50;;;;;;;9.88;4.97;;;13.30;78.70;;;;;;4986686;28;20039;-58
2023/05/18 06:13:15;;;;;;;10.07;5.50;;;13.40;78.70;;;;;;4986362;28;20341;-58
2023/05/18 06:15:41;;;;;;;11.30;5.13;;;13.40;78.80;;;;;;5001072;28;20029;-58
2023/05/18 06:18:06;;;;;;;11.80;6.07;;;13.30;78.70;;;;;;4986014;28;20050;-58
2023/05/18 06:20:32;;;;;;;11.57;5.63;;;13.30;78.70;;;;;;4987731;28;20061;-59
2023/05/18 06:22:57;;;;;;;8.48;4.90;;;13.40;78.70;;;;;;4985990;28;20054;-59
2023/05/18 06:25:23;;;;;;;7.57;4.70;;;13.40;78.70;;;;;;4986196;28;20039;-58
2023/05/18 06:27:48;;;;;;;11.00;4.70;;;13.30;78.70;;;;;;4985074;28;20035;-59
2023/05/18 06:30:14;;;;;;;13.75;5.30;;;13.30;78.70;;;;;;4966721;28;20048;-59
2023/05/18 06:32:40;;;;;;;8.98;4.82;;;13.30;78.70;;;;;;4976837;28;20045;-59
2023/05/18 06:35:06;;;;;;;9.20;4.85;;;13.30;78.80;;;;;;4969684;28;20034;-58
2023/05/18 06:37:31;;;;;;;7.00;4.43;;;13.30;78.70;;;;;;4986468;28;20026;-59
2023/05/18 06:39:57;;;;;;;10.63;5.07;;;13.30;78.70;;;;;;4984456;28;20105;-58
2023/05/18 06:42:23;;;;;;;6.50;4.38;;;13.30;78.70;;;;;;4984652;28;20034;-59
2023/05/18 06:44:49;;;;;;;8.80;4.30;;;13.40;78.80;;;;;;4985791;28;20126;-58
2023/05/18 06:47:15;;;;;;;8.80;4.40;;;13.30;78.70;;;;;;4985342;28;20026;-59
2023/05/18 06:49:40;;;;;;;11.32;4.97;;;13.40;78.70;;;;;;4986369;28;20045;-58
2023/05/18 06:52:08;;;;;;;7.95;4.50;;;13.30;78.70;;;;;;4985540;28;20098;-59
2023/05/18 06:54:34;;;;;;;8.65;4.55;;;13.40;78.70;;;;;;4985616;28;20027;-59
2023/05/18 06:57:00;;;;;;;8.93;4.22;;;13.40;78.70;;;;;;4986489;28;20023;-58
2023/05/18 06:59:25;;;;;;;8.93;4.75;;;13.40;78.70;;;;;;4984541;28;20456;-59
2023/05/18 07:01:51;;;;;;;5.65;3.78;;;13.40;78.70;;;;;;4985459;28;20031;-58
2023/05/18 07:04:18;;;;;;;9.75;4.47;;;13.40;78.80;;;;;;4986127;28;20039;-58
2023/05/18 07:06:45;;;;;;;6.45;4.18;;;13.40;78.70;;;;;;4985976;28;20084;-59
2023/05/18 07:09:10;;;;;;;8.18;4.10;;;13.40;78.70;;;;;;4968991;28;20027;-59
2023/05/18 07:11:36;;;;;;;7.43;3.97;;;13.30;78.70;;;;;;5000966;28;20050;-58
2023/05/18 07:14:01;;;;;;;7.32;3.80;;;13.40;78.80;;;;;;4968957;28;20050;-59
2023/05/18 07:16:27;;;;;;;7.35;3.55;;;13.40;78.80;;;;;;4983307;28;20037;-59
2023/05/18 07:18:52;;;;;;;7.68;4.13;;;13.40;78.80;;;;;;4986221;28;20054;-59
2023/05/18 07:21:18;;;;;;;8.30;4.45;;;13.40;78.80;;;;;;4984679;28;20042;-58
2023/05/18 07:23:44;;;;;;;7.35;4.00;;;13.30;78.80;;;;;;4968715;28;20094;-59
2023/05/18 07:26:10;;;;;;;6.55;3.90;;;13.40;78.80;;;;;;4985036;28;20053;-59
2023/05/18 07:28:36;;;;;;;7.53;4.20;;;13.40;78.90;;;;;;4985504;28;20038;-59
2023/05/18 07:31:03;;;;;;;7.45;4.07;;;13.40;78.90;;;;;;4984267;28;20031;-58
2023/05/18 07:33:28;;;;;;;8.68;4.68;;;13.40;78.90;;;;;;4985256;28;20054;-58
2023/05/18 07:35:54;;;;;;;8.93;3.95;;;13.40;78.90;;;;;;4964261;28;20038;-59
2023/05/18 07:38:20;;;;;;;9.20;4.35;;;13.40;78.80;;;;;;4982360;28;20031;-58
2023/05/18 07:40:45;;;;;;;12.07;4.10;;;13.40;78.80;;;;;;4986037;28;20035;-58
2023/05/18 07:43:11;;;;;;;9.05;4.00;;;13.50;78.80;;;;;;4985494;28;20054;-59
2023/05/18 07:45:36;;;;;;;6.38;3.80;;;13.40;78.70;;;;;;4984339;28;20026;-55
2023/05/18 07:48:02;;;;;;;10.88;4.95;;;13.50;78.70;;;;;;5016491;28;20571;-54
2023/05/18 07:50:28;;;;;;;9.10;4.22;;;13.50;78.80;;;;;;4985807;28;20076;-54
2023/05/18 07:52:54;;;;;;;7.82;4.40;;;13.50;78.90;;;;;;5014322;28;20090;-54
2023/05/18 07:55:20;;;;;;;7.78;4.03;;;13.50;79.00;;;;;;4972300;28;20035;-54
2023/05/18 07:57:46;;;;;;;7.38;4.15;;;13.40;79.10;;;;;;4984168;28;20030;-54
2023/05/18 08:00:12;;;;;;;8.45;4.13;;;13.40;79.40;;;;;;4983342;28;20027;-55
2023/05/18 08:02:38;;;;;;;5.50;3.83;;;13.40;79.80;;;;;;4982689;28;20038;-54
2023/05/18 08:05:04;;;;;;;8.80;4.50;;;13.40;80.00;;;;;;4984097;28;20034;-54
2023/05/18 08:07:31;;;;;;;6.80;3.88;;;13.40;80.30;;;;;;4985695;28;20133;-54
2023/05/18 08:09:57;;;;;;;6.00;4.07;;;13.40;80.60;;;;;;4985748;28;20034;-54
2023/05/18 08:12:23;;;;;;;8.70;4.30;;;13.40;80.50;;;;;;4983487;28;20031;-55
2023/05/18 08:14:49;;;;;;;7.90;4.57;;;13.40;80.50;;;;;;4984706;28;20043;-54
2023/05/18 08:17:14;;;;;;;7.97;4.25;;;13.40;80.40;;;;;;4985716;28;20160;-54
2023/05/18 08:19:40;;;;;;;8.48;4.32;;;13.40;80.50;;;;;;4983006;28;20035;-54
2023/05/18 08:22:05;;;;;;;7.18;4.47;;;13.40;80.70;;;;;;4983199;28;20033;-54
2023/05/18 08:24:32;;;;;;;8.35;4.53;;;13.40;80.70;;;;;;4968057;28;20129;-54
2023/05/18 08:26:58;;;;;;;7.15;3.95;;;13.40;80.70;;;;;;4964555;28;20031;-54
2023/05/18 08:29:23;;;;;;;6.95;4.50;;;13.40;80.70;;;;;;4983735;28;20038;-54
2023/05/18 08:31:50;;;;;;;8.68;4.25;;;13.40;80.70;;;;;;5019885;28;20023;-54
2023/05/18 08:34:15;;;;;;;8.32;4.65;;;13.50;80.60;;;;;;4987702;28;20030;-54
2023/05/18 08:36:44;;;;;;;10.45;4.50;;;13.50;80.70;;;;;;4986481;28;20030;-54
2023/05/18 08:39:10;;;;;;;8.80;4.57;;;13.50;80.70;;;;;;4987366;28;20121;-54
2023/05/18 08:41:40;;;;;;;14.05;4.50;;;13.50;80.50;;;;;;4967122;28;20050;-54
2023/05/18 08:44:08;;;;;;;8.95;4.43;;;13.50;80.40;;;;;;4982062;28;20037;-54
2023/05/18 08:46:35;;;;;;;11.70;4.75;;;13.60;80.50;;;;;;4986707;28;20058;-54
2023/05/18 08:49:02;;;;;;;10.15;5.10;;;13.60;80.50;;;;;;4986651;28;20042;-54
2023/05/18 08:51:36;;;;;;;11.07;5.15;;;13.60;80.50;;;;;;4986825;28;20314;-54
2023/05/18 08:54:04;;;;;;;16.57;5.50;;;13.60;80.50;;;;;;5002117;28;20136;-54
2023/05/18 08:56:32;;;;;;;10.93;4.85;;;13.60;80.60;;;;;;5002645;28;20031;-54
2023/05/18 08:58:57;;;;;;;14.50;4.88;;;13.60;80.60;;;;;;4986772;28;20035;-54
2023/05/18 09:01:27;;;;;;;21.48;5.57;;;13.70;80.70;;;;;;4985584;28;20105;-54
2023/05/18 09:03:52;;;;;;;17.60;5.22;;;13.70;80.60;;;;;;4986573;28;20035;-53
2023/05/18 09:06:19;;;;;;;15.20;5.47;;;13.70;80.50;;;;;;4983502;28;20093;-54
2023/05/18 09:08:45;;;;;;;21.58;5.30;;;13.70;80.60;;;;;;4967970;28;20100;-53
2023/05/18 09:11:10;;;;;;;21.65;6.05;;;13.70;80.60;;;;;;4981756;28;20432;-53
2023/05/18 09:13:36;;;;;;;31.90;7.82;;;13.80;80.60;;;;;;4984802;28;20106;-54
2023/05/18 09:16:03;;;;;;;35.58;7.43;;;13.80;80.60;;;;;;4986100;28;20448;-54
2023/05/18 09:18:28;;;;;;;37.65;7.00;;;13.90;80.60;;;;;;5007089;28;20034;-54
2023/05/18 09:20:54;;;;;;;36.38;6.53;;;13.90;80.40;;;;;;4988042;28;20034;-54
2023/05/18 09:23:19;;;;;;;21.08;6.40;;;13.90;80.10;;;;;;4967343;28;20045;-54
2023/05/18 09:25:45;;;;;;;37.42;8.43;;;14.00;79.60;;;;;;4986176;28;20043;-54
2023/05/18 09:28:13;;;;;;;18.10;6.20;;;14.00;79.80;;;;;;5002539;28;20037;-54
2023/05/18 09:30:40;;;;;;;27.27;6.55;;;13.80;79.20;;;;;;4986303;28;20038;-54
2023/05/18 09:33:16;;;;;;;32.67;5.88;;;14.00;78.90;;;;;;4983706;28;20030;-54
2023/05/18 09:35:46;;;;;;;17.23;4.80;;;14.00;78.90;;;;;;4983051;28;20039;-53
2023/05/18 09:38:16;;;;;;;45.60;7.70;;;14.00;79.00;;;;;;4983457;28;20039;-54
2023/05/18 09:40:45;;;;;;;43.50;8.05;;;14.00;79.10;;;;;;4985113;28;20117;-54
2023/05/18 09:43:10;;;;;;;27.77;5.95;;;14.00;79.20;;;;;;4981867;28;20031;-54
2023/05/18 09:45:41;;;;;;;22.33;6.20;;;14.10;79.30;;;;;;4980241;28;20042;-54
2023/05/18 09:48:07;;;;;;;34.00;6.47;;;14.10;79.30;;;;;;4990780;28;20026;-54
2023/05/18 09:50:33;;;;;;;39.08;7.68;;;14.10;79.20;;;;;;4983530;28;20057;-54
2023/05/18 09:52:59;;;;;;;80.40;10.75;;;14.10;79.40;;;;;;4983715;28;20089;-54
2023/05/18 09:55:24;;;;;;;45.83;8.50;;;14.10;79.40;;;;;;4984911;28;20134;-54
2023/05/18 09:57:50;;;;;;;60.10;8.98;;;14.20;79.50;;;;;;4991788;28;20034;-53
2023/05/18 10:00:17;;;;;;;54.55;9.70;;;14.20;79.40;;;;;;4980574;28;20086;-54
2023/05/18 10:02:47;;;;;;;52.00;9.90;;;14.20;79.60;;;;;;4984071;28;20141;-54
2023/05/18 10:05:19;;;;;;;62.60;11.43;;;14.30;79.50;;;;;;4970133;28;20046;-54
2023/05/18 10:07:45;;;;;;;103.40;17.67;;;14.30;79.50;;;;;;4976543;28;20201;-52
2023/05/18 10:10:11;;;;;;;109.30;18.08;;;14.40;79.60;;;;;;4984508;28;20023;-54
2023/05/18 10:12:39;;;;;;;72.03;11.75;;;14.50;79.80;;;;;;4984666;28;20066;-54
2023/05/18 10:15:08;;;;;;;69.75;11.23;;;14.50;79.60;;;;;;4983785;28;20023;-54
2023/05/18 10:17:34;;;;;;;66.47;11.90;;;14.60;79.40;;;;;;4986862;28;20035;-53
2023/05/18 10:19:59;;;;;;;71.85;11.10;;;14.60;79.30;;;;;;4986616;28;20102;-54
2023/05/18 10:22:25;;;;;;;78.88;12.10;;;14.70;79.40;;;;;;4984520;28;20018;-53
2023/05/18 10:24:51;;;;;;;79.43;11.02;;;14.70;79.50;;;;;;4984976;28;20069;-54
2023/05/18 10:27:18;;;;;;;84.13;13.95;;;14.70;79.40;;;;;;4985384;28;20054;-53
2023/05/18 10:29:45;;;;;;;79.72;12.52;;;14.80;79.50;;;;;;4965820;28;20035;-54
2023/05/18 10:32:11;;;;;;;107.93;15.45;;;14.80;79.20;;;;;;4968520;28;20023;-54
2023/05/18 10:34:37;;;;;;;61.15;10.77;;;14.80;79.30;;;;;;4983864;28;20026;-54
2023/05/18 10:37:05;;;;;;;44.47;8.18;;;14.90;79.10;;;;;;4966460;28;20386;-54
2023/05/18 10:39:35;;;;;;;66.95;10.80;;;14.90;78.90;;;;;;4984254;28;20035;-53
2023/05/18 10:42:01;;;;;;;78.32;11.73;;;15.00;79.00;;;;;;4984636;28;20039;-53
2023/05/18 10:44:27;;;;;;;107.13;14.02;;;15.00;79.10;;;;;;4964177;28;20035;-53
2023/05/18 10:46:53;;;;;;;84.35;12.60;;;15.00;79.00;;;;;;4979655;28;20027;-54
2023/05/18 10:49:22;;;;;;;79.65;11.80;;;15.00;79.10;;;;;;4968458;28;20121;-53
2023/05/18 10:51:47;;;;;;;97.30;13.82;;;15.10;79.00;;;;;;4984138;28;20098;-54
2023/05/18 10:54:13;;;;;;;65.45;10.95;;;15.10;78.60;;;;;;4983519;28;20027;-54
2023/05/18 10:56:46;;;;;;;59.92;10.38;;;15.20;78.70;;;;;;4985732;28;20031;-54
2023/05/18 10:59:12;;;;;;;57.10;9.65;;;15.20;78.50;;;;;;4983378;28;20039;-54
2023/05/18 11:01:38;;;;;;;60.60;9.77;;;15.20;78.20;;;;;;4982765;28;20046;-53
2023/05/18 11:04:04;;;;;;;53.17;10.15;;;15.20;78.20;;;;;;4983677;28;20045;-54
2023/05/18 11:06:30;;;;;;;100.95;14.10;;;15.30;78.30;;;;;;4984010;28;20031;-54
2023/05/18 11:08:55;;;;;;;45.67;8.60;;;15.20;78.10;;;;;;4995320;28;20030;-53
2023/05/18 11:11:27;;;;;;;36.28;7.22;;;15.30;78.90;;;;;;4982628;28;20022;-54
2023/05/18 11:13:52;;;;;;;65.05;9.30;;;15.20;78.00;;;;;;4983142;28;20062;-54
2023/05/18 11:16:18;;;;;;;45.00;8.50;;;15.20;78.20;;;;;;4983763;28;20030;-53
2023/05/18 11:18:45;;;;;;;27.40;5.95;;;15.20;78.30;;;;;;4983732;28;20153;-53
2023/05/18 11:21:41;;;;;;;38.55;7.65;;;15.30;78.30;;;;;;4966601;28;20044;-54
2023/05/18 11:24:29;;;;;;;41.83;7.70;;;15.30;78.10;;;;;;4957488;28;20062;-53
2023/05/18 11:26:56;;;;;;;16.52;5.60;;;15.30;78.20;;;;;;4968900;28;20035;-54
2023/05/18 11:29:28;;;;;;;27.15;5.97;;;15.30;78.00;;;;;;4979744;28;20451;-54
2023/05/18 11:31:54;;;;;;;21.10;5.90;;;15.40;77.90;;;;;;4993271;28;20037;-54
2023/05/18 11:34:38;;;;;;;22.13;5.38;;;15.40;77.90;;;;;;4983568;28;20031;-54
2023/05/18 11:37:05;;;;;;;21.65;5.90;;;15.40;77.20;;;;;;4984564;28;20065;-54
2023/05/18 11:39:31;;;;;;;20.92;5.30;;;15.40;77.30;;;;;;4983522;28;20081;-54
2023/05/18 11:42:10;;;;;;;27.50;5.55;;;15.50;77.50;;;;;;4983537;28;20031;-54
2023/05/18 11:44:38;;;;;;;40.75;6.57;;;15.50;77.50;;;;;;4982523;28;20045;-53
2023/05/18 11:47:08;;;;;;;34.95;6.63;;;15.50;77.40;;;;;;4981783;28;20054;-54
2023/05/18 11:49:47;;;;;;;32.60;6.68;;;15.50;77.40;;;;;;4982663;28;20070;-54
2023/05/18 11:52:19;;;;;;;41.88;7.15;;;15.60;77.40;;;;;;4983251;28;20019;-53
2023/05/18 11:54:48;;;;;;;31.50;6.18;;;15.60;77.40;;;;;;4983469;28;20081;-53
2023/05/18 11:57:16;;;;;;;43.75;6.70;;;15.60;76.70;;;;;;4982022;28;20034;-53
2023/05/18 11:59:43;;;;;;;37.30;6.85;;;15.60;76.50;;;;;;4985432;28;20037;-53
2023/05/18 12:02:10;;;;;;;37.08;5.75;;;15.70;76.80;;;;;;4982793;28;20066;-53
2023/05/18 12:05:07;;;;;;;27.50;6.82;;;15.60;75.90;;;;;;4983385;28;20047;-53
2023/05/18 12:07:34;;;;;;;51.25;8.45;;;15.60;76.30;;;;;;4982074;28;20042;-54
2023/05/18 12:10:00;;;;;;;32.60;7.20;;;15.70;76.50;;;;;;4983528;28;20198;-53
2023/05/18 12:12:26;;;;;;;42.85;7.20;;;15.70;76.20;;;;;;4966798;28;20069;-53
2023/05/18 12:15:02;;;;;;;36.30;6.95;;;15.70;76.10;;;;;;5013214;28;20019;-54
2023/05/18 12:17:41;;;;;;;35.10;7.20;;;15.70;75.80;;;;;;4983890;28;20059;-54
2023/05/18 12:20:17;;;;;;;34.72;6.60;;;15.80;75.70;;;;;;4984280;28;20031;-54
2023/05/18 12:22:51;;;;;;;24.35;5.30;;;15.80;75.70;;;;;;4982831;28;20027;-53
2023/05/18 12:25:18;;;;;;;18.88;4.95;;;15.80;75.60;;;;;;4983794;28;20027;-54
2023/05/18 12:27:44;;;;;;;55.42;7.10;;;15.80;75.20;;;;;;4966478;28;20786;-54
2023/05/18 12:30:17;;;;;;;35.53;7.05;;;15.90;75.30;;;;;;5016017;28;20027;-54
2023/05/18 12:32:53;;;;;;;47.25;7.78;;;15.90;75.40;;;;;;4984076;28;20042;-53
2023/05/18 12:35:25;;;;;;;42.25;5.90;;;15.90;75.40;;;;;;4968582;28;20030;-53
2023/05/18 12:37:51;;;;;;;44.70;7.53;;;15.90;75.60;;;;;;4985334;28;20046;-53